sensor_id;sensor_type;location;lat;lon;timestamp;P1;durP1;ratioP1;P2;durP2;ratioP2
140;SDS011;65;48.778;9.160;2023-02-21T00:01:29;7.13;;;3.50;;
140;SDS011;65;48.778;9.160;2023-02-21T00:04:33;10.32;;;4.70;;
140;SDS011;65;48.778;9.160;2023-02-21T00:07:37;8.43;;;4.05;;
140;SDS011;65;48.778;9.160;2023-02-21T00:10:42;8.52;;;3.67;;
140;SDS011;65;48.778;9.160;2023-02-21T00:13:46;8.23;;;3.53;;
140;SDS011;65;48.778;9.160;2023-02-21T00:16:50;9.90;;;4.50;;
140;SDS011;65;48.778;9.160;2023-02-21T00:19:55;9.88;;;4.45;;
140;SDS011;65;48.778;9.160;2023-02-21T00:22:59;10.10;;;4.50;;
140;SDS011;65;48.778;9.160;2023-02-21T00:26:03;10.00;;;5.00;;
140;SDS011;65;48.778;9.160;2023-02-21T00:29:08;8.68;;;4.10;;
140;SDS011;65;48.778;9.160;2023-02-21T00:32:12;10.57;;;4.40;;
140;SDS011;65;48.778;9.160;2023-02-21T00:35:17;8.52;;;3.42;;
140;SDS011;65;48.778;9.160;2023-02-21T00:38:21;9.40;;;4.43;;
140;SDS011;65;48.778;9.160;2023-02-21T00:41:25;7.25;;;3.60;;
140;SDS011;65;48.778;9.160;2023-02-21T00:44:29;7.60;;;3.80;;
140;SDS011;65;48.778;9.160;2023-02-21T00:47:34;7.72;;;3.88;;
140;SDS011;65;48.778;9.160;2023-02-21T00:50:38;7.30;;;3.55;;
140;SDS011;65;48.778;9.160;2023-02-21T00:53:42;7.85;;;3.67;;
140;SDS011;65;48.778;9.160;2023-02-21T00:56:47;7.38;;;2.85;;
140;SDS011;65;48.778;9.160;2023-02-21T00:59:51;7.43;;;2.60;;
140;SDS011;65;48.778;9.160;2023-02-21T01:02:56;8.02;;;3.03;;
140;SDS011;65;48.778;9.160;2023-02-21T01:06:00;8.70;;;3.23;;
140;SDS011;65;48.778;9.160;2023-02-21T01:09:04;7.53;;;3.20;;
140;SDS011;65;48.778;9.160;2023-02-21T01:12:08;6.95;;;3.00;;
140;SDS011;65;48.778;9.160;2023-02-21T01:15:13;6.05;;;2.67;;
140;SDS011;65;48.778;9.160;2023-02-21T01:18:18;6.60;;;2.95;;
140;SDS011;65;48.778;9.160;2023-02-21T01:21:22;6.78;;;2.92;;
140;SDS011;65;48.778;9.160;2023-02-21T01:24:27;7.30;;;3.30;;
140;SDS011;65;48.778;9.160;2023-02-21T01:27:31;6.40;;;2.80;;
140;SDS011;65;48.778;9.160;2023-02-21T01:30:35;5.67;;;2.67;;
140;SDS011;65;48.778;9.160;2023-02-21T01:33:40;5.88;;;2.55;;
140;SDS011;65;48.778;9.160;2023-02-21T01:36:44;6.75;;;2.83;;
140;SDS011;65;48.778;9.160;2023-02-21T01:39:48;9.85;;;2.95;;
140;SDS011;65;48.778;9.160;2023-02-21T01:42:52;8.82;;;2.72;;
140;SDS011;65;48.778;9.160;2023-02-21T01:45:57;5.47;;;2.53;;
140;SDS011;65;48.778;9.160;2023-02-21T01:49:03;5.60;;;2.60;;
140;SDS011;65;48.778;9.160;2023-02-21T01:52:13;8.02;;;3.25;;
140;SDS011;65;48.778;9.160;2023-02-21T01:55:18;6.85;;;2.65;;
140;SDS011;65;48.778;9.160;2023-02-21T01:58:23;6.95;;;2.75;;
140;SDS011;65;48.778;9.160;2023-02-21T02:01:38;5.78;;;2.47;;
140;SDS011;65;48.778;9.160;2023-02-21T02:04:56;7.82;;;2.83;;
140;SDS011;65;48.778;9.160;2023-02-21T02:08:02;5.18;;;2.38;;
140;SDS011;65;48.778;9.160;2023-02-21T02:11:15;5.15;;;2.47;;
140;SDS011;65;48.778;9.160;2023-02-21T02:20:31;6.60;;;2.30;;
140;SDS011;65;48.778;9.160;2023-02-21T02:36:07;5.70;;;2.60;;
140;SDS011;65;48.778;9.160;2023-02-21T02:51:08;7.00;;;2.70;;
140;SDS011;65;48.778;9.160;2023-02-21T02:53:57;7.00;;;2.63;;
140;SDS011;65;48.778;9.160;2023-02-21T02:56:43;5.50;;;2.50;;
140;SDS011;65;48.778;9.160;2023-02-21T02:59:31;6.13;;;3.08;;
140;SDS011;65;48.778;9.160;2023-02-21T03:02:33;7.10;;;3.22;;
140;SDS011;65;48.778;9.160;2023-02-21T03:06:08;4.70;;;2.22;;
140;SDS011;65;48.778;9.160;2023-02-21T03:08:50;5.85;;;2.45;;
140;SDS011;65;48.778;9.160;2023-02-21T03:11:47;5.53;;;2.50;;
140;SDS011;65;48.778;9.160;2023-02-21T03:14:42;7.78;;;2.75;;
140;SDS011;65;48.778;9.160;2023-02-21T03:17:36;5.63;;;2.60;;
140;SDS011;65;48.778;9.160;2023-02-21T03:20:26;6.95;;;2.42;;
140;SDS011;65;48.778;9.160;2023-02-21T03:23:13;8.15;;;2.65;;
140;SDS011;65;48.778;9.160;2023-02-21T03:26:02;9.30;;;3.10;;
140;SDS011;65;48.778;9.160;2023-02-21T03:28:52;5.20;;;2.85;;
140;SDS011;65;48.778;9.160;2023-02-21T03:31:40;6.53;;;2.60;;
140;SDS011;65;48.778;9.160;2023-02-21T03:34:30;6.50;;;3.03;;
140;SDS011;65;48.778;9.160;2023-02-21T03:37:19;7.38;;;2.85;;
140;SDS011;65;48.778;9.160;2023-02-21T03:40:21;6.40;;;2.55;;
140;SDS011;65;48.778;9.160;2023-02-21T03:43:13;6.65;;;3.10;;
140;SDS011;65;48.778;9.160;2023-02-21T03:45:58;8.27;;;3.42;;
140;SDS011;65;48.778;9.160;2023-02-21T03:48:44;10.30;;;3.58;;
140;SDS011;65;48.778;9.160;2023-02-21T03:51:30;8.48;;;3.78;;
140;SDS011;65;48.778;9.160;2023-02-21T03:54:16;8.27;;;3.75;;
140;SDS011;65;48.778;9.160;2023-02-21T03:57:01;9.93;;;3.47;;
140;SDS011;65;48.778;9.160;2023-02-21T03:59:47;9.27;;;3.50;;
140;SDS011;65;48.778;9.160;2023-02-21T04:02:33;7.43;;;3.60;;
140;SDS011;65;48.778;9.160;2023-02-21T04:05:19;8.48;;;3.97;;
140;SDS011;65;48.778;9.160;2023-02-21T04:08:04;9.68;;;3.83;;
140;SDS011;65;48.778;9.160;2023-02-21T04:10:50;8.13;;;3.63;;
140;SDS011;65;48.778;9.160;2023-02-21T04:13:36;10.02;;;3.92;;
140;SDS011;65;48.778;9.160;2023-02-21T04:16:21;7.65;;;3.40;;
140;SDS011;65;48.778;9.160;2023-02-21T04:19:07;11.00;;;3.40;;
140;SDS011;65;48.778;9.160;2023-02-21T04:21:53;7.97;;;3.90;;
140;SDS011;65;48.778;9.160;2023-02-21T04:24:39;9.80;;;3.97;;
140;SDS011;65;48.778;9.160;2023-02-21T04:27:24;6.82;;;3.83;;
140;SDS011;65;48.778;9.160;2023-02-21T04:30:11;8.05;;;3.70;;
140;SDS011;65;48.778;9.160;2023-02-21T04:32:57;7.97;;;3.67;;
140;SDS011;65;48.778;9.160;2023-02-21T04:35:43;7.80;;;3.88;;
140;SDS011;65;48.778;9.160;2023-02-21T04:38:28;8.25;;;3.95;;
140;SDS011;65;48.778;9.160;2023-02-21T04:41:15;13.15;;;4.70;;
140;SDS011;65;48.778;9.160;2023-02-21T04:44:01;9.73;;;4.57;;
140;SDS011;65;48.778;9.160;2023-02-21T04:46:47;11.68;;;4.75;;
140;SDS011;65;48.778;9.160;2023-02-21T04:49:32;10.73;;;5.00;;
140;SDS011;65;48.778;9.160;2023-02-21T04:52:18;12.73;;;5.90;;
140;SDS011;65;48.778;9.160;2023-02-21T04:55:07;12.82;;;6.00;;
140;SDS011;65;48.778;9.160;2023-02-21T04:57:53;11.85;;;6.07;;
140;SDS011;65;48.778;9.160;2023-02-21T05:00:39;13.45;;;6.30;;
140;SDS011;65;48.778;9.160;2023-02-21T05:03:25;14.10;;;6.22;;
140;SDS011;65;48.778;9.160;2023-02-21T05:06:15;10.98;;;5.85;;
140;SDS011;65;48.778;9.160;2023-02-21T05:09:03;11.68;;;5.88;;
140;SDS011;65;48.778;9.160;2023-02-21T05:11:48;12.30;;;6.05;;
140;SDS011;65;48.778;9.160;2023-02-21T05:14:34;9.93;;;5.47;;
140;SDS011;65;48.778;9.160;2023-02-21T05:17:20;11.65;;;5.78;;
140;SDS011;65;48.778;9.160;2023-02-21T05:20:06;12.88;;;5.78;;
140;SDS011;65;48.778;9.160;2023-02-21T05:22:55;10.43;;;5.10;;
140;SDS011;65;48.778;9.160;2023-02-21T05:25:41;13.63;;;5.97;;
140;SDS011;65;48.778;9.160;2023-02-21T05:28:27;12.65;;;6.38;;
140;SDS011;65;48.778;9.160;2023-02-21T05:31:13;11.40;;;5.85;;
140;SDS011;65;48.778;9.160;2023-02-21T05:33:58;13.32;;;5.53;;
140;SDS011;65;48.778;9.160;2023-02-21T05:36:44;10.60;;;5.50;;
140;SDS011;65;48.778;9.160;2023-02-21T05:39:31;14.10;;;5.20;;
140;SDS011;65;48.778;9.160;2023-02-21T05:42:16;9.38;;;5.13;;
140;SDS011;65;48.778;9.160;2023-02-21T05:45:02;12.70;;;5.85;;
140;SDS011;65;48.778;9.160;2023-02-21T05:47:51;10.52;;;5.55;;
140;SDS011;65;48.778;9.160;2023-02-21T05:50:40;10.65;;;5.20;;
140;SDS011;65;48.778;9.160;2023-02-21T05:53:26;11.82;;;6.03;;
140;SDS011;65;48.778;9.160;2023-02-21T05:56:12;12.75;;;5.95;;
140;SDS011;65;48.778;9.160;2023-02-21T05:58:58;11.35;;;5.93;;
140;SDS011;65;48.778;9.160;2023-02-21T06:01:44;10.98;;;5.57;;
140;SDS011;65;48.778;9.160;2023-02-21T06:04:30;11.38;;;5.65;;
140;SDS011;65;48.778;9.160;2023-02-21T06:07:16;11.07;;;5.32;;
140;SDS011;65;48.778;9.160;2023-02-21T06:10:03;9.43;;;4.80;;
140;SDS011;65;48.778;9.160;2023-02-21T06:12:49;14.13;;;5.97;;
140;SDS011;65;48.778;9.160;2023-02-21T06:15:35;11.77;;;6.22;;
140;SDS011;65;48.778;9.160;2023-02-21T06:18:33;11.20;;;5.55;;
140;SDS011;65;48.778;9.160;2023-02-21T06:21:25;11.52;;;5.63;;
140;SDS011;65;48.778;9.160;2023-02-21T06:24:11;10.52;;;5.78;;
140;SDS011;65;48.778;9.160;2023-02-21T06:26:57;12.82;;;5.50;;
140;SDS011;65;48.778;9.160;2023-02-21T06:29:42;15.50;;;5.18;;
140;SDS011;65;48.778;9.160;2023-02-21T06:32:28;11.27;;;5.47;;
140;SDS011;65;48.778;9.160;2023-02-21T06:35:14;12.13;;;5.18;;
140;SDS011;65;48.778;9.160;2023-02-21T06:38:00;11.48;;;5.80;;
140;SDS011;65;48.778;9.160;2023-02-21T06:40:45;10.25;;;5.38;;
140;SDS011;65;48.778;9.160;2023-02-21T06:43:31;11.13;;;5.78;;
140;SDS011;65;48.778;9.160;2023-02-21T06:46:18;18.23;;;6.43;;
140;SDS011;65;48.778;9.160;2023-02-21T06:49:05;11.30;;;5.15;;
140;SDS011;65;48.778;9.160;2023-02-21T06:51:50;11.20;;;4.63;;
140;SDS011;65;48.778;9.160;2023-02-21T06:54:36;10.65;;;5.75;;
140;SDS011;65;48.778;9.160;2023-02-21T06:57:22;18.05;;;6.10;;
140;SDS011;65;48.778;9.160;2023-02-21T07:00:08;9.88;;;5.43;;
140;SDS011;65;48.778;9.160;2023-02-21T07:02:54;11.73;;;5.60;;
140;SDS011;65;48.778;9.160;2023-02-21T07:05:40;13.50;;;5.35;;
140;SDS011;65;48.778;9.160;2023-02-21T07:08:26;13.27;;;5.85;;
140;SDS011;65;48.778;9.160;2023-02-21T07:11:11;11.70;;;5.85;;
140;SDS011;65;48.778;9.160;2023-02-21T07:13:58;12.55;;;5.25;;
140;SDS011;65;48.778;9.160;2023-02-21T07:16:43;11.20;;;5.10;;
140;SDS011;65;48.778;9.160;2023-02-21T07:19:29;9.48;;;4.80;;
140;SDS011;65;48.778;9.160;2023-02-21T07:22:15;9.27;;;4.90;;
140;SDS011;65;48.778;9.160;2023-02-21T07:25:01;8.48;;;4.32;;
140;SDS011;65;48.778;9.160;2023-02-21T07:27:47;10.57;;;4.90;;
140;SDS011;65;48.778;9.160;2023-02-21T07:30:33;11.20;;;4.38;;
140;SDS011;65;48.778;9.160;2023-02-21T07:33:19;10.35;;;4.75;;
140;SDS011;65;48.778;9.160;2023-02-21T07:36:05;9.82;;;4.88;;
140;SDS011;65;48.778;9.160;2023-02-21T07:38:51;12.57;;;4.60;;
140;SDS011;65;48.778;9.160;2023-02-21T07:41:37;8.93;;;4.45;;
140;SDS011;65;48.778;9.160;2023-02-21T07:44:22;11.45;;;4.78;;
140;SDS011;65;48.778;9.160;2023-02-21T07:47:08;9.77;;;5.22;;
140;SDS011;65;48.778;9.160;2023-02-21T07:49:55;10.75;;;4.60;;
140;SDS011;65;48.778;9.160;2023-02-21T07:52:40;10.23;;;4.40;;
140;SDS011;65;48.778;9.160;2023-02-21T07:55:26;9.02;;;4.50;;
140;SDS011;65;48.778;9.160;2023-02-21T07:58:12;13.00;;;4.78;;
140;SDS011;65;48.778;9.160;2023-02-21T08:00:58;12.88;;;4.60;;
140;SDS011;65;48.778;9.160;2023-02-21T08:03:49;9.43;;;4.55;;
140;SDS011;65;48.778;9.160;2023-02-21T08:06:34;9.25;;;5.00;;
140;SDS011;65;48.778;9.160;2023-02-21T08:09:20;15.48;;;4.93;;
140;SDS011;65;48.778;9.160;2023-02-21T08:12:07;13.27;;;6.03;;
140;SDS011;65;48.778;9.160;2023-02-21T08:14:52;10.50;;;5.55;;
140;SDS011;65;48.778;9.160;2023-02-21T08:17:38;14.45;;;5.40;;
140;SDS011;65;48.778;9.160;2023-02-21T08:20:24;16.30;;;6.25;;
140;SDS011;65;48.778;9.160;2023-02-21T08:23:09;13.63;;;5.35;;
140;SDS011;65;48.778;9.160;2023-02-21T08:25:55;19.65;;;6.05;;
140;SDS011;65;48.778;9.160;2023-02-21T08:28:41;18.52;;;6.30;;
140;SDS011;65;48.778;9.160;2023-02-21T08:31:26;11.90;;;5.90;;
140;SDS011;65;48.778;9.160;2023-02-21T08:34:12;15.25;;;5.93;;
140;SDS011;65;48.778;9.160;2023-02-21T08:36:58;12.85;;;5.82;;
140;SDS011;65;48.778;9.160;2023-02-21T08:39:53;16.55;;;6.70;;
140;SDS011;65;48.778;9.160;2023-02-21T08:42:40;15.07;;;6.05;;
140;SDS011;65;48.778;9.160;2023-02-21T08:45:27;13.57;;;5.60;;
140;SDS011;65;48.778;9.160;2023-02-21T08:48:13;11.82;;;5.20;;
140;SDS011;65;48.778;9.160;2023-02-21T08:50:59;12.85;;;6.30;;
140;SDS011;65;48.778;9.160;2023-02-21T08:53:44;13.95;;;6.20;;
140;SDS011;65;48.778;9.160;2023-02-21T08:56:30;12.95;;;6.05;;
140;SDS011;65;48.778;9.160;2023-02-21T08:59:16;16.30;;;6.10;;
140;SDS011;65;48.778;9.160;2023-02-21T09:02:01;15.48;;;5.43;;
140;SDS011;65;48.778;9.160;2023-02-21T09:04:47;14.45;;;6.00;;
140;SDS011;65;48.778;9.160;2023-02-21T09:07:33;11.13;;;5.80;;
140;SDS011;65;48.778;9.160;2023-02-21T09:10:19;11.68;;;5.22;;
140;SDS011;65;48.778;9.160;2023-02-21T09:13:06;12.18;;;5.10;;
140;SDS011;65;48.778;9.160;2023-02-21T09:15:51;13.57;;;5.57;;
140;SDS011;65;48.778;9.160;2023-02-21T09:18:37;12.13;;;5.30;;
140;SDS011;65;48.778;9.160;2023-02-21T09:21:23;11.18;;;5.05;;
140;SDS011;65;48.778;9.160;2023-02-21T09:24:09;12.95;;;4.63;;
140;SDS011;65;48.778;9.160;2023-02-21T09:26:56;11.73;;;5.18;;
140;SDS011;65;48.778;9.160;2023-02-21T09:29:43;10.52;;;4.97;;
140;SDS011;65;48.778;9.160;2023-02-21T09:32:29;10.82;;;5.18;;
140;SDS011;65;48.778;9.160;2023-02-21T09:35:15;10.85;;;5.47;;
140;SDS011;65;48.778;9.160;2023-02-21T09:38:01;12.95;;;5.40;;
140;SDS011;65;48.778;9.160;2023-02-21T09:40:48;9.35;;;4.60;;
140;SDS011;65;48.778;9.160;2023-02-21T09:43:39;8.88;;;4.85;;
140;SDS011;65;48.778;9.160;2023-02-21T09:49:34;12.13;;;5.00;;
140;SDS011;65;48.778;9.160;2023-02-21T09:52:29;10.80;;;4.25;;
140;SDS011;65;48.778;9.160;2023-02-21T09:58:16;8.18;;;4.00;;
140;SDS011;65;48.778;9.160;2023-02-21T10:01:05;8.13;;;4.18;;
140;SDS011;65;48.778;9.160;2023-02-21T10:04:07;10.05;;;4.22;;
140;SDS011;65;48.778;9.160;2023-02-21T10:09:59;7.60;;;3.75;;
140;SDS011;65;48.778;9.160;2023-02-21T10:12:57;9.30;;;4.57;;
140;SDS011;65;48.778;9.160;2023-02-21T10:21:48;11.27;;;4.43;;
140;SDS011;65;48.778;9.160;2023-02-21T10:24:35;13.20;;;4.15;;
140;SDS011;65;48.778;9.160;2023-02-21T10:27:22;10.90;;;4.68;;
140;SDS011;65;48.778;9.160;2023-02-21T10:30:15;10.65;;;4.63;;
140;SDS011;65;48.778;9.160;2023-02-21T10:33:09;14.15;;;3.63;;
140;SDS011;65;48.778;9.160;2023-02-21T10:35:54;7.95;;;3.60;;
140;SDS011;65;48.778;9.160;2023-02-21T10:38:42;10.55;;;3.17;;
140;SDS011;65;48.778;9.160;2023-02-21T10:41:39;7.97;;;2.90;;
140;SDS011;65;48.778;9.160;2023-02-21T10:44:27;5.00;;;2.67;;
140;SDS011;65;48.778;9.160;2023-02-21T10:47:25;8.15;;;3.80;;
140;SDS011;65;48.778;9.160;2023-02-21T10:50:35;11.80;;;4.45;;
140;SDS011;65;48.778;9.160;2023-02-21T10:53:30;9.85;;;4.35;;
140;SDS011;65;48.778;9.160;2023-02-21T10:56:34;9.68;;;4.55;;
140;SDS011;65;48.778;9.160;2023-02-21T10:59:24;9.13;;;4.20;;
140;SDS011;65;48.778;9.160;2023-02-21T11:05:18;10.70;;;4.03;;
140;SDS011;65;48.778;9.160;2023-02-21T11:08:07;10.32;;;4.40;;
140;SDS011;65;48.778;9.160;2023-02-21T11:10:54;10.32;;;4.15;;
140;SDS011;65;48.778;9.160;2023-02-21T11:13:39;12.75;;;3.83;;
140;SDS011;65;48.778;9.160;2023-02-21T11:16:25;12.18;;;4.63;;
140;SDS011;65;48.778;9.160;2023-02-21T11:19:12;11.82;;;4.70;;
140;SDS011;65;48.778;9.160;2023-02-21T11:21:58;8.32;;;4.20;;
140;SDS011;65;48.778;9.160;2023-02-21T11:24:52;11.57;;;4.50;;
140;SDS011;65;48.778;9.160;2023-02-21T11:27:38;18.23;;;9.57;;
140;SDS011;65;48.778;9.160;2023-02-21T11:30:24;11.20;;;4.90;;
140;SDS011;65;48.778;9.160;2023-02-21T11:33:10;9.70;;;4.50;;
140;SDS011;65;48.778;9.160;2023-02-21T11:36:12;11.48;;;4.47;;
140;SDS011;65;48.778;9.160;2023-02-21T11:42:03;7.85;;;4.38;;
140;SDS011;65;48.778;9.160;2023-02-21T11:45:23;12.55;;;3.85;;
140;SDS011;65;48.778;9.160;2023-02-21T11:48:15;11.13;;;4.18;;
140;SDS011;65;48.778;9.160;2023-02-21T11:51:05;10.20;;;4.40;;
140;SDS011;65;48.778;9.160;2023-02-21T11:53:58;12.25;;;3.88;;
140;SDS011;65;48.778;9.160;2023-02-21T12:06:02;8.40;;;3.53;;
140;SDS011;65;48.778;9.160;2023-02-21T12:42:40;7.97;;;2.90;;
140;SDS011;65;48.778;9.160;2023-02-21T12:49:04;7.18;;;2.22;;
140;SDS011;65;48.778;9.160;2023-02-21T12:52:01;6.72;;;2.75;;
140;SDS011;65;48.778;9.160;2023-02-21T12:55:00;7.43;;;2.58;;
140;SDS011;65;48.778;9.160;2023-02-21T12:58:02;4.78;;;2.22;;
140;SDS011;65;48.778;9.160;2023-02-21T13:07:19;7.20;;;2.70;;
140;SDS011;65;48.778;9.160;2023-02-21T13:10:13;8.27;;;2.35;;
140;SDS011;65;48.778;9.160;2023-02-21T13:13:06;5.00;;;2.10;;
140;SDS011;65;48.778;9.160;2023-02-21T13:15:53;5.93;;;2.03;;
140;SDS011;65;48.778;9.160;2023-02-21T13:18:43;7.15;;;2.28;;
140;SDS011;65;48.778;9.160;2023-02-21T13:21:47;4.32;;;1.80;;
140;SDS011;65;48.778;9.160;2023-02-21T13:28:07;3.90;;;1.80;;
140;SDS011;65;48.778;9.160;2023-02-21T13:31:28;4.05;;;1.85;;
140;SDS011;65;48.778;9.160;2023-02-21T13:34:23;7.47;;;2.20;;
140;SDS011;65;48.778;9.160;2023-02-21T13:37:15;4.93;;;2.35;;
140;SDS011;65;48.778;9.160;2023-02-21T13:40:06;6.20;;;2.00;;
140;SDS011;65;48.778;9.160;2023-02-21T13:43:09;4.78;;;2.30;;
140;SDS011;65;48.778;9.160;2023-02-21T13:52:24;4.45;;;2.28;;
140;SDS011;65;48.778;9.160;2023-02-21T13:55:39;5.88;;;2.38;;
140;SDS011;65;48.778;9.160;2023-02-21T13:58:50;8.45;;;2.70;;
140;SDS011;65;48.778;9.160;2023-02-21T14:07:47;7.53;;;2.40;;
140;SDS011;65;48.778;9.160;2023-02-21T14:10:47;5.63;;;2.33;;
140;SDS011;65;48.778;9.160;2023-02-21T14:16:48;4.47;;;2.20;;
140;SDS011;65;48.778;9.160;2023-02-21T14:19:42;6.15;;;1.90;;
140;SDS011;65;48.778;9.160;2023-02-21T14:22:33;7.28;;;2.53;;
140;SDS011;65;48.778;9.160;2023-02-21T14:25:20;3.60;;;2.10;;
140;SDS011;65;48.778;9.160;2023-02-21T14:34:37;4.80;;;1.90;;
140;SDS011;65;48.778;9.160;2023-02-21T14:49:41;4.05;;;2.10;;
140;SDS011;65;48.778;9.160;2023-02-21T14:55:30;6.07;;;1.90;;
140;SDS011;65;48.778;9.160;2023-02-21T14:58:34;5.93;;;1.80;;
140;SDS011;65;48.778;9.160;2023-02-21T15:01:31;9.10;;;2.35;;
140;SDS011;65;48.778;9.160;2023-02-21T15:10:05;5.03;;;2.10;;
140;SDS011;65;48.778;9.160;2023-02-21T15:13:27;4.47;;;1.80;;
140;SDS011;65;48.778;9.160;2023-02-21T15:16:15;3.55;;;1.90;;
140;SDS011;65;48.778;9.160;2023-02-21T15:19:01;4.63;;;1.70;;
140;SDS011;65;48.778;9.160;2023-02-21T15:21:47;6.68;;;2.30;;
140;SDS011;65;48.778;9.160;2023-02-21T15:24:33;7.97;;;2.20;;
140;SDS011;65;48.778;9.160;2023-02-21T15:27:18;5.60;;;2.13;;
140;SDS011;65;48.778;9.160;2023-02-21T15:33:15;5.18;;;1.90;;
140;SDS011;65;48.778;9.160;2023-02-21T15:36:07;3.90;;;1.80;;
140;SDS011;65;48.778;9.160;2023-02-21T15:39:05;4.88;;;2.15;;
140;SDS011;65;48.778;9.160;2023-02-21T15:41:57;5.40;;;1.85;;
140;SDS011;65;48.778;9.160;2023-02-21T15:44:45;4.10;;;1.85;;
140;SDS011;65;48.778;9.160;2023-02-21T15:47:32;6.78;;;2.42;;
140;SDS011;65;48.778;9.160;2023-02-21T15:53:29;5.88;;;1.92;;
140;SDS011;65;48.778;9.160;2023-02-21T15:56:24;7.22;;;1.90;;
140;SDS011;65;48.778;9.160;2023-02-21T16:02:21;5.97;;;2.25;;
140;SDS011;65;48.778;9.160;2023-02-21T16:05:22;4.95;;;2.13;;
140;SDS011;65;48.778;9.160;2023-02-21T16:08:11;4.25;;;2.08;;
140;SDS011;65;48.778;9.160;2023-02-21T16:11:02;4.07;;;1.80;;
140;SDS011;65;48.778;9.160;2023-02-21T16:13:49;5.93;;;2.67;;
140;SDS011;65;48.778;9.160;2023-02-21T16:16:35;6.97;;;2.80;;
140;SDS011;65;48.778;9.160;2023-02-21T16:19:21;7.03;;;2.33;;
140;SDS011;65;48.778;9.160;2023-02-21T16:25:24;4.22;;;2.20;;
140;SDS011;65;48.778;9.160;2023-02-21T16:28:10;4.38;;;2.08;;
140;SDS011;65;48.778;9.160;2023-02-21T16:30:57;5.07;;;2.25;;
140;SDS011;65;48.778;9.160;2023-02-21T16:33:45;6.70;;;2.10;;
140;SDS011;65;48.778;9.160;2023-02-21T16:36:33;4.35;;;2.15;;
140;SDS011;65;48.778;9.160;2023-02-21T16:39:20;4.90;;;2.35;;
140;SDS011;65;48.778;9.160;2023-02-21T16:42:06;5.07;;;2.30;;
140;SDS011;65;48.778;9.160;2023-02-21T16:44:52;6.38;;;2.33;;
140;SDS011;65;48.778;9.160;2023-02-21T16:47:38;8.82;;;2.63;;
140;SDS011;65;48.778;9.160;2023-02-21T16:50:26;5.10;;;2.35;;
140;SDS011;65;48.778;9.160;2023-02-21T16:53:15;4.60;;;2.10;;
140;SDS011;65;48.778;9.160;2023-02-21T16:56:02;5.55;;;2.50;;
140;SDS011;65;48.778;9.160;2023-02-21T16:58:49;8.43;;;2.63;;
140;SDS011;65;48.778;9.160;2023-02-21T17:01:41;12.15;;;4.10;;
140;SDS011;65;48.778;9.160;2023-02-21T17:04:27;7.22;;;3.83;;
140;SDS011;65;48.778;9.160;2023-02-21T17:07:14;7.88;;;2.90;;
140;SDS011;65;48.778;9.160;2023-02-21T17:10:00;6.13;;;3.05;;
140;SDS011;65;48.778;9.160;2023-02-21T17:12:46;8.07;;;3.47;;
140;SDS011;65;48.778;9.160;2023-02-21T17:15:32;7.90;;;3.15;;
140;SDS011;65;48.778;9.160;2023-02-21T17:18:18;6.72;;;2.85;;
140;SDS011;65;48.778;9.160;2023-02-21T17:21:04;10.75;;;3.70;;
140;SDS011;65;48.778;9.160;2023-02-21T17:23:50;12.52;;;3.42;;
140;SDS011;65;48.778;9.160;2023-02-21T17:26:35;15.18;;;3.85;;
140;SDS011;65;48.778;9.160;2023-02-21T17:29:22;8.43;;;4.20;;
140;SDS011;65;48.778;9.160;2023-02-21T17:32:08;9.23;;;3.60;;
140;SDS011;65;48.778;9.160;2023-02-21T17:34:53;10.57;;;3.83;;
140;SDS011;65;48.778;9.160;2023-02-21T17:37:42;14.43;;;4.97;;
140;SDS011;65;48.778;9.160;2023-02-21T17:40:28;11.32;;;5.15;;
140;SDS011;65;48.778;9.160;2023-02-21T17:43:14;11.02;;;4.88;;
140;SDS011;65;48.778;9.160;2023-02-21T17:46:00;9.55;;;4.43;;
140;SDS011;65;48.778;9.160;2023-02-21T17:48:46;12.63;;;4.28;;
140;SDS011;65;48.778;9.160;2023-02-21T17:51:32;12.23;;;4.60;;
140;SDS011;65;48.778;9.160;2023-02-21T17:54:20;9.10;;;4.10;;
140;SDS011;65;48.778;9.160;2023-02-21T17:57:07;11.90;;;3.90;;
140;SDS011;65;48.778;9.160;2023-02-21T17:59:54;10.20;;;4.47;;
140;SDS011;65;48.778;9.160;2023-02-21T18:02:40;10.18;;;4.45;;
140;SDS011;65;48.778;9.160;2023-02-21T18:05:25;6.20;;;3.40;;
140;SDS011;65;48.778;9.160;2023-02-21T18:08:15;11.13;;;4.75;;
140;SDS011;65;48.778;9.160;2023-02-21T18:11:01;14.73;;;4.25;;
140;SDS011;65;48.778;9.160;2023-02-21T18:13:47;8.18;;;4.10;;
140;SDS011;65;48.778;9.160;2023-02-21T18:16:33;12.13;;;4.55;;
140;SDS011;65;48.778;9.160;2023-02-21T18:19:18;10.63;;;4.72;;
140;SDS011;65;48.778;9.160;2023-02-21T18:22:04;13.50;;;5.25;;
140;SDS011;65;48.778;9.160;2023-02-21T18:24:50;11.55;;;5.07;;
140;SDS011;65;48.778;9.160;2023-02-21T18:27:36;12.32;;;5.68;;
140;SDS011;65;48.778;9.160;2023-02-21T18:30:22;15.63;;;5.57;;
140;SDS011;65;48.778;9.160;2023-02-21T18:33:07;11.35;;;5.40;;
140;SDS011;65;48.778;9.160;2023-02-21T18:35:53;13.27;;;5.45;;
140;SDS011;65;48.778;9.160;2023-02-21T18:38:41;10.90;;;5.28;;
140;SDS011;65;48.778;9.160;2023-02-21T18:41:27;10.35;;;4.97;;
140;SDS011;65;48.778;9.160;2023-02-21T18:44:12;11.30;;;5.60;;
140;SDS011;65;48.778;9.160;2023-02-21T18:46:58;15.15;;;6.03;;
140;SDS011;65;48.778;9.160;2023-02-21T18:49:46;12.98;;;6.30;;
140;SDS011;65;48.778;9.160;2023-02-21T18:52:32;14.13;;;6.70;;
140;SDS011;65;48.778;9.160;2023-02-21T18:55:18;14.73;;;7.50;;
140;SDS011;65;48.778;9.160;2023-02-21T18:58:04;18.75;;;8.32;;
140;SDS011;65;48.778;9.160;2023-02-21T19:00:50;18.55;;;9.48;;
140;SDS011;65;48.778;9.160;2023-02-21T19:03:36;18.50;;;9.27;;
140;SDS011;65;48.778;9.160;2023-02-21T19:06:22;22.55;;;10.77;;
140;SDS011;65;48.778;9.160;2023-02-21T19:09:09;22.30;;;10.52;;
140;SDS011;65;48.778;9.160;2023-02-21T19:11:55;22.52;;;11.13;;
140;SDS011;65;48.778;9.160;2023-02-21T19:14:41;20.45;;;10.90;;
140;SDS011;65;48.778;9.160;2023-02-21T19:17:27;22.83;;;11.13;;
140;SDS011;65;48.778;9.160;2023-02-21T19:20:13;23.40;;;10.95;;
140;SDS011;65;48.778;9.160;2023-02-21T19:23:00;24.25;;;10.73;;
140;SDS011;65;48.778;9.160;2023-02-21T19:25:46;25.83;;;11.77;;
140;SDS011;65;48.778;9.160;2023-02-21T19:32:13;26.33;;;10.90;;
140;SDS011;65;48.778;9.160;2023-02-21T19:35:00;22.95;;;10.52;;
140;SDS011;65;48.778;9.160;2023-02-21T19:37:45;17.38;;;8.90;;
140;SDS011;65;48.778;9.160;2023-02-21T19:40:32;22.50;;;10.00;;
140;SDS011;65;48.778;9.160;2023-02-21T19:43:18;17.35;;;8.32;;
140;SDS011;65;48.778;9.160;2023-02-21T19:46:04;23.15;;;8.77;;
140;SDS011;65;48.778;9.160;2023-02-21T19:48:50;14.50;;;7.05;;
140;SDS011;65;48.778;9.160;2023-02-21T19:51:37;13.15;;;7.07;;
140;SDS011;65;48.778;9.160;2023-02-21T19:54:23;16.00;;;7.57;;
140;SDS011;65;48.778;9.160;2023-02-21T19:57:14;20.50;;;8.18;;
140;SDS011;65;48.778;9.160;2023-02-21T19:59:59;15.65;;;7.75;;
140;SDS011;65;48.778;9.160;2023-02-21T20:02:45;14.75;;;7.25;;
140;SDS011;65;48.778;9.160;2023-02-21T20:05:32;19.25;;;7.72;;
140;SDS011;65;48.778;9.160;2023-02-21T20:08:17;14.40;;;7.28;;
140;SDS011;65;48.778;9.160;2023-02-21T20:11:03;12.50;;;6.45;;
140;SDS011;65;48.778;9.160;2023-02-21T20:13:49;17.23;;;6.78;;
140;SDS011;65;48.778;9.160;2023-02-21T20:16:36;16.73;;;6.47;;
140;SDS011;65;48.778;9.160;2023-02-21T20:19:23;13.00;;;6.90;;
140;SDS011;65;48.778;9.160;2023-02-21T20:22:10;14.25;;;6.88;;
140;SDS011;65;48.778;9.160;2023-02-21T20:24:55;14.05;;;6.35;;
140;SDS011;65;48.778;9.160;2023-02-21T20:27:41;14.48;;;6.90;;
140;SDS011;65;48.778;9.160;2023-02-21T20:30:27;14.82;;;6.93;;
140;SDS011;65;48.778;9.160;2023-02-21T20:33:14;12.73;;;6.43;;
140;SDS011;65;48.778;9.160;2023-02-21T20:36:00;15.38;;;7.20;;
140;SDS011;65;48.778;9.160;2023-02-21T20:38:45;16.33;;;7.03;;
140;SDS011;65;48.778;9.160;2023-02-21T20:41:32;12.57;;;6.43;;
140;SDS011;65;48.778;9.160;2023-02-21T20:44:21;14.10;;;7.13;;
140;SDS011;65;48.778;9.160;2023-02-21T20:47:09;15.57;;;7.97;;
140;SDS011;65;48.778;9.160;2023-02-21T20:49:55;16.88;;;8.18;;
140;SDS011;65;48.778;9.160;2023-02-21T20:52:41;13.43;;;7.13;;
140;SDS011;65;48.778;9.160;2023-02-21T20:55:27;13.70;;;6.82;;
140;SDS011;65;48.778;9.160;2023-02-21T20:58:12;14.07;;;7.00;;
140;SDS011;65;48.778;9.160;2023-02-21T21:00:58;16.17;;;7.43;;
140;SDS011;65;48.778;9.160;2023-02-21T21:03:44;15.15;;;7.20;;
140;SDS011;65;48.778;9.160;2023-02-21T21:06:31;16.58;;;7.90;;
140;SDS011;65;48.778;9.160;2023-02-21T21:09:16;16.02;;;7.20;;